Time,TemperatureF,DewpointF,PressureIn,WindDirection,WindDirectionDegrees,WindSpeedMPH,WindSpeedGustMPH,Humidity,HourlyPrecipIn,Conditions,Clouds,dailyrainin,SolarRadiationWatts/m^2,SoftwareType,DateUTC
2013-02-17 00:00:00,56.9,11.2,29.94,ENE,66,2.0,3.0,16,0.00,,,0.00,0,WeatherCatV1.11B39,2013-02-17 07:00:00,
2013-02-17 00:05:00,56.4,12.1,29.94,ENE,70,6.0,7.0,17,0.00,,,0.00,0,WeatherCatV1.11B39,2013-02-17 07:05:00,
2013-02-17 00:10:00,56.4,12.1,29.94,ENE,77,2.0,3.0,17,0.00,,,0.00,0,WeatherCatV1.11B39,2013-02-17 07:10:00,
2013-02-17 00:15:00,56.7,11.0,29.94,East,82,3.0,5.0,16,0.00,,,0.00,0,WeatherCatV1.11B39,2013-02-17 07:15:00,
2013-02-17 00:20:00,56.0,11.8,29.94,East,79,2.0,5.0,17,0.00,,,0.00,0,WeatherCatV1.11B39,2013-02-17 07:20:00,
2013-02-17 00:25:00,54.5,13.1,29.94,ENE,78,3.0,3.0,19,0.00,,,0.00,0,WeatherCatV1.11B39,2013-02-17 07:25:00,
2013-02-17 00:30:00,53.1,14.2,29.94,NNE,33,4.0,4.0,21,0.00,,,0.00,0,WeatherCatV1.11B39,2013-02-17 07:30:00,
2013-02-17 00:35:00,52.3,13.5,29.94,NNE,32,0.0,4.0,21,0.00,,,0.00,0,WeatherCatV1.11B39,2013-02-17 07:35:00,
2013-02-17 00:40:00,51.9,14.3,29.94,NNE,32,0.0,1.0,22,0.00,,,0.00,0,WeatherCatV1.11B39,2013-02-17 07:40:00,
2013-02-17 00:45:00,50.3,14.9,29.94,NNE,32,0.0,1.0,24,0.00,,,0.00,0,WeatherCatV1.11B39,2013-02-17 07:45:00,
2013-02-17 00:50:00,49.4,15.1,29.94,NNE,32,1.0,1.0,25,0.00,,,0.00,0,WeatherCatV1.11B39,2013-02-17 07:50:00,
2013-02-17 00:55:00,48.4,16.0,29.94,NNE,32,1.0,3.0,27,0.00,,,0.00,0,WeatherCatV1.11B39,2013-02-17 07:55:00,
2013-02-17 01:00:00,48.0,15.6,29.94,NNE,32,0.0,3.0,27,0.00,,,0.00,0,WeatherCatV1.11B39,2013-02-17 08:00:00,
2013-02-17 01:05:00,47.8,15.5,29.94,NNE,32,1.0,2.0,27,0.00,,,0.00,0,WeatherCatV1.11B39,2013-02-17 08:05:00,
2013-02-17 01:10:00,47.2,16.6,29.94,NNE,32,1.0,1.0,29,0.00,,,0.00,0,WeatherCatV1.11B39,2013-02-17 08:10:00,
2013-02-17 01:15:00,46.5,16.8,29.94,NNE,32,0.0,2.0,30,0.00,,,0.00,0,WeatherCatV1.11B39,2013-02-17 08:15:00,
2013-02-17 01:20:00,45.5,17.4,29.94,NNE,32,0.0,1.0,32,0.00,,,0.00,0,WeatherCatV1.11B39,2013-02-17 08:20:00,
2013-02-17 01:25:00,45.3,17.2,29.94,NNE,32,1.0,3.0,32,0.00,,,0.00,0,WeatherCatV1.11B39,2013-02-17 08:25:00,
2013-02-17 01:30:00,45.7,16.1,29.94,NNE,32,3.0,3.0,30,0.00,,,0.00,0,WeatherCatV1.11B39,2013-02-17 08:30:00,
2013-02-17 01:35:00,46.4,15.9,29.94,NNE,32,2.0,3.0,29,0.00,,,0.00,0,WeatherCatV1.11B39,2013-02-17 08:35:00,
2013-02-17 01:40:00,47.0,15.6,29.94,NNE,32,3.0,3.0,28,0.00,,,0.00,0,WeatherCatV1.11B39,2013-02-17 08:40:00,
2013-02-17 01:45:00,47.0,14.8,29.94,NNE,32,0.0,2.0,27,0.00,,,0.00,0,WeatherCatV1.11B39,2013-02-17 08:45:00,
2013-02-17 01:50:00,46.0,17.1,29.94,NNE,32,3.0,3.0,31,0.00,,,0.00,0,WeatherCatV1.11B39,2013-02-17 08:50:00,
2013-02-17 01:55:00,45.5,15.9,29.93,NNE,32,2.0,3.0,30,0.00,,,0.00,0,WeatherCatV1.11B39,2013-02-17 08:55:00,
2013-02-17 02:00:00,45.9,15.5,29.93,NNE,32,1.0,2.0,29,0.00,,,0.00,0,WeatherCatV1.11B39,2013-02-17 09:00:00,
2013-02-17 02:05:00,46.1,16.4,29.93,NNE,32,0.0,0.0,30,0.00,,,0.00,0,WeatherCatV1.11B39,2013-02-17 09:05:00,
2013-02-17 02:10:00,45.2,15.6,29.93,NNE,32,0.0,0.0,30,0.00,,,0.00,0,WeatherCatV1.11B39,2013-02-17 09:10:00,
2013-02-17 02:15:00,44.3,17.7,29.93,NNE,32,1.0,1.0,34,0.00,,,0.00,0,WeatherCatV1.11B39,2013-02-17 09:15:00,
2013-02-17 02:20:00,43.6,18.4,29.93,NNE,32,2.0,2.0,36,0.00,,,0.00,0,WeatherCatV1.11B39,2013-02-17 09:20:00,
2013-02-17 02:25:00,42.8,17.7,29.93,NNE,32,2.0,2.0,36,0.00,,,0.00,0,WeatherCatV1.11B39,2013-02-17 09:25:00,
2013-02-17 02:30:00,42.7,18.9,29.93,NNE,32,1.0,2.0,38,0.00,,,0.00,0,WeatherCatV1.11B39,2013-02-17 09:30:00,
2013-02-17 02:35:00,42.4,19.2,29.93,NNE,32,2.0,2.0,39,0.00,,,0.00,0,WeatherCatV1.11B39,2013-02-17 09:35:00,
2013-02-17 02:40:00,42.1,18.9,29.92,NNE,32,3.0,3.0,39,0.00,,,0.00,0,WeatherCatV1.11B39,2013-02-17 09:40:00,
2013-02-17 02:45:00,42.4,19.8,29.92,NNE,32,2.0,3.0,40,0.00,,,0.00,0,WeatherCatV1.11B39,2013-02-17 09:45:00,
2013-02-17 02:50:00,42.5,19.3,29.92,NNE,32,2.0,4.0,39,0.00,,,0.00,0,WeatherCatV1.11B39,2013-02-17 09:50:00,
2013-02-17 02:55:00,42.8,18.4,29.91,ENE,66,1.0,4.0,37,0.00,,,0.00,0,WeatherCatV1.11B39,2013-02-17 09:55:00,
2013-02-17 03:00:00,43.6,17.1,29.91,ENE,69,1.0,3.0,34,0.00,,,0.00,0,WeatherCatV1.11B39,2013-02-17 10:00:00,
2013-02-17 03:05:00,44.6,16.6,29.91,ENE,68,2.0,3.0,32,0.00,,,0.00,0,WeatherCatV1.11B39,2013-02-17 10:05:00,
2013-02-17 03:10:00,44.8,16.8,29.91,ENE,68,0.0,1.0,32,0.00,,,0.00,0,WeatherCatV1.11B39,2013-02-17 10:10:00,
2013-02-17 03:15:00,44.3,17.0,29.91,ENE,68,0.0,1.0,33,0.00,,,0.00,0,WeatherCatV1.11B39,2013-02-17 10:15:00,
2013-02-17 03:20:00,43.7,16.5,29.91,ENE,68,1.0,1.0,33,0.00,,,0.00,0,WeatherCatV1.11B39,2013-02-17 10:20:00,
2013-02-17 03:25:00,42.7,17.0,29.91,ENE,68,1.0,3.0,35,0.00,,,0.00,0,WeatherCatV1.11B39,2013-02-17 10:25:00,
2013-02-17 03:30:00,42.4,18.0,29.91,ENE,68,1.0,1.0,37,0.00,,,0.00,0,WeatherCatV1.11B39,2013-02-17 10:30:00,
2013-02-17 03:35:00,42.0,18.3,29.91,ENE,68,2.0,2.0,38,0.00,,,0.00,0,WeatherCatV1.11B39,2013-02-17 10:35:00,
2013-02-17 03:40:00,41.6,18.5,29.91,ENE,78,3.0,5.0,39,0.00,,,0.00,0,WeatherCatV1.11B39,2013-02-17 10:40:00,
2013-02-17 03:45:00,41.8,18.7,29.90,ENE,78,2.0,5.0,39,0.00,,,0.00,0,WeatherCatV1.11B39,2013-02-17 10:45:00,
2013-02-17 03:50:00,41.4,18.3,29.90,ENE,78,2.0,2.0,39,0.00,,,0.00,0,WeatherCatV1.11B39,2013-02-17 10:50:00,
2013-02-17 03:55:00,41.2,18.7,29.90,ENE,78,2.0,3.0,40,0.00,,,0.00,0,WeatherCatV1.11B39,2013-02-17 10:55:00,
2013-02-17 04:00:00,41.0,18.5,29.90,ENE,77,0.0,5.0,40,0.00,,,0.00,0,WeatherCatV1.11B39,2013-02-17 11:00:00,
2013-02-17 04:05:00,41.4,18.3,29.90,ENE,77,0.0,2.0,39,0.00,,,0.00,0,WeatherCatV1.11B39,2013-02-17 11:05:00,
2013-02-17 04:10:00,42.0,18.9,29.90,ENE,77,0.0,2.0,39,0.00,,,0.00,0,WeatherCatV1.11B39,2013-02-17 11:10:00,
2013-02-17 04:15:00,41.5,19.0,29.90,ENE,77,0.0,1.0,40,0.00,,,0.00,0,WeatherCatV1.11B39,2013-02-17 11:15:00,
2013-02-17 04:20:00,40.5,18.1,29.90,ENE,77,0.0,1.0,40,0.00,,,0.00,0,WeatherCatV1.11B39,2013-02-17 11:20:00,
2013-02-17 04:25:00,40.4,18.6,29.90,ENE,77,0.0,1.0,41,0.00,,,0.00,0,WeatherCatV1.11B39,2013-02-17 11:25:00,
2013-02-17 04:30:00,39.6,18.4,29.90,ENE,77,2.0,3.0,42,0.00,,,0.00,0,WeatherCatV1.11B39,2013-02-17 11:30:00,
2013-02-17 04:35:00,39.8,18.6,29.90,ENE,77,0.0,1.0,42,0.00,,,0.00,0,WeatherCatV1.11B39,2013-02-17 11:35:00,
2013-02-17 04:40:00,39.2,19.7,29.90,ENE,77,1.0,2.0,45,0.00,,,0.00,0,WeatherCatV1.11B39,2013-02-17 11:40:00,
2013-02-17 04:45:00,39.0,20.0,29.90,ENE,77,1.0,2.0,46,0.00,,,0.00,0,WeatherCatV1.11B39,2013-02-17 11:45:00,
2013-02-17 04:50:00,38.6,20.6,29.90,ENE,77,0.0,0.0,48,0.00,,,0.00,0,WeatherCatV1.11B39,2013-02-17 11:50:00,
2013-02-17 04:55:00,38.3,20.8,29.90,ENE,77,1.0,1.0,49,0.00,,,0.00,0,WeatherCatV1.11B39,2013-02-17 11:55:00,
2013-02-17 05:00:00,37.8,20.8,29.90,ENE,77,0.0,0.0,50,0.00,,,0.00,0,WeatherCatV1.11B39,2013-02-17 12:00:00,
2013-02-17 05:05:00,37.7,20.3,29.90,ENE,77,2.0,2.0,49,0.00,,,0.00,0,WeatherCatV1.11B39,2013-02-17 12:05:00,
2013-02-17 05:10:00,37.4,20.9,29.90,ENE,77,0.0,0.0,51,0.00,,,0.00,0,WeatherCatV1.11B39,2013-02-17 12:10:00,
2013-02-17 05:15:00,37.7,21.2,29.90,ENE,77,0.0,1.0,51,0.00,,,0.00,0,WeatherCatV1.11B39,2013-02-17 12:15:00,
2013-02-17 05:20:00,37.6,20.7,29.90,ENE,77,2.0,2.0,50,0.00,,,0.00,0,WeatherCatV1.11B39,2013-02-17 12:20:00,
2013-02-17 05:25:00,37.8,19.9,29.90,ENE,77,0.0,1.0,48,0.00,,,0.00,0,WeatherCatV1.11B39,2013-02-17 12:25:00,
2013-02-17 05:30:00,38.0,20.6,29.90,ENE,77,0.0,1.0,49,0.00,,,0.00,0,WeatherCatV1.11B39,2013-02-17 12:30:00,
2013-02-17 05:35:00,38.0,21.0,29.90,ENE,77,2.0,2.0,50,0.00,,,0.00,0,WeatherCatV1.11B39,2013-02-17 12:35:00,
2013-02-17 05:40:00,37.6,20.2,29.89,ENE,77,1.0,2.0,49,0.00,,,0.00,0,WeatherCatV1.11B39,2013-02-17 12:40:00,
2013-02-17 05:45:00,37.6,20.7,29.89,ENE,77,1.0,2.0,50,0.00,,,0.00,0,WeatherCatV1.11B39,2013-02-17 12:45:00,
2013-02-17 05:50:00,37.1,19.7,29.90,ENE,77,1.0,2.0,49,0.00,,,0.00,0,WeatherCatV1.11B39,2013-02-17 12:50:00,
2013-02-17 05:55:00,37.1,20.2,29.90,ENE,77,0.0,0.0,50,0.00,,,0.00,0,WeatherCatV1.11B39,2013-02-17 12:55:00,
2013-02-17 06:00:00,36.9,20.5,29.90,ENE,77,1.0,1.0,51,0.00,,,0.00,0,WeatherCatV1.11B39,2013-02-17 13:00:00,
2013-02-17 06:05:00,36.8,20.4,29.90,ENE,77,2.0,3.0,51,0.00,,,0.00,0,WeatherCatV1.11B39,2013-02-17 13:05:00,
2013-02-17 06:10:00,37.3,19.4,29.90,ENE,77,1.0,3.0,48,0.00,,,0.00,0,WeatherCatV1.11B39,2013-02-17 13:10:00,
2013-02-17 06:15:00,37.8,20.4,29.90,ENE,77,0.0,2.0,49,0.00,,,0.00,0,WeatherCatV1.11B39,2013-02-17 13:15:00,
2013-02-17 06:20:00,37.6,20.7,29.90,ENE,77,0.0,1.0,50,0.00,,,0.00,0,WeatherCatV1.11B39,2013-02-17 13:20:00,
2013-02-17 06:25:00,37.4,20.0,29.90,ENE,77,1.0,1.0,49,0.00,,,0.00,0,WeatherCatV1.11B39,2013-02-17 13:25:00,
2013-02-17 06:30:00,37.2,20.3,29.90,ENE,77,1.0,2.0,50,0.00,,,0.00,0,WeatherCatV1.11B39,2013-02-17 13:30:00,
2013-02-17 06:35:00,37.0,20.6,29.90,ENE,77,2.0,5.0,51,0.00,,,0.00,0,WeatherCatV1.11B39,2013-02-17 13:35:00,
2013-02-17 06:40:00,37.1,20.2,29.90,ENE,77,2.0,2.0,50,0.00,,,0.00,0,WeatherCatV1.11B39,2013-02-17 13:40:00,
2013-02-17 06:45:00,37.3,20.4,29.90,ENE,77,1.0,2.0,50,0.00,,,0.00,0,WeatherCatV1.11B39,2013-02-17 13:45:00,
2013-02-17 06:50:00,37.1,20.7,29.90,ENE,77,1.0,1.0,51,0.00,,,0.00,0,WeatherCatV1.11B39,2013-02-17 13:50:00,
2013-02-17 06:55:00,37.3,19.9,29.91,ENE,77,1.0,2.0,49,0.00,,,0.00,0,WeatherCatV1.11B39,2013-02-17 13:55:00,
2013-02-17 07:00:00,37.7,19.8,29.90,ENE,77,3.0,3.0,48,0.00,,,0.00,5,WeatherCatV1.11B39,2013-02-17 14:00:00,
2013-02-17 07:05:00,37.9,19.0,29.91,ENE,77,2.0,2.0,46,0.00,,,0.00,7,WeatherCatV1.11B39,2013-02-17 14:05:00,
2013-02-17 07:10:00,38.4,18.9,29.90,ENE,77,2.0,3.0,45,0.00,,,0.00,9,WeatherCatV1.11B39,2013-02-17 14:10:00,
2013-02-17 07:15:00,38.3,19.9,29.91,ENE,77,0.0,0.0,47,0.00,,,0.00,11,WeatherCatV1.11B39,2013-02-17 14:15:00,
2013-02-17 07:20:00,37.9,20.5,29.91,ENE,77,0.0,0.0,49,0.00,,,0.00,12,WeatherCatV1.11B39,2013-02-17 14:20:00,
2013-02-17 07:25:00,37.2,20.3,29.91,ENE,77,1.0,1.0,50,0.00,,,0.00,19,WeatherCatV1.11B39,2013-02-17 14:25:00,
2013-02-17 07:30:00,37.3,21.3,29.91,ENE,77,2.0,2.0,52,0.00,,,0.00,28,WeatherCatV1.11B39,2013-02-17 14:30:00,
2013-02-17 07:35:00,38.0,21.5,29.91,ENE,77,0.0,1.0,51,0.00,,,0.00,35,WeatherCatV1.11B39,2013-02-17 14:35:00,
2013-02-17 07:40:00,38.8,20.8,29.91,ENE,77,0.0,1.0,48,0.00,,,0.00,56,WeatherCatV1.11B39,2013-02-17 14:40:00,
2013-02-17 07:45:00,41.3,19.4,29.92,ENE,77,0.0,1.0,41,0.00,,,0.00,79,WeatherCatV1.11B39,2013-02-17 14:45:00,
2013-02-17 07:50:00,42.9,17.8,29.92,ENE,77,1.0,1.0,36,0.00,,,0.00,100,WeatherCatV1.11B39,2013-02-17 14:50:00,
2013-02-17 07:55:00,45.1,17.7,29.92,ENE,77,0.0,0.0,33,0.00,,,0.00,123,WeatherCatV1.11B39,2013-02-17 14:55:00,
2013-02-17 08:00:00,46.7,18.4,29.92,ENE,77,0.0,0.0,32,0.00,,,0.00,144,WeatherCatV1.11B39,2013-02-17 15:00:00,
2013-02-17 08:05:00,47.2,20.3,29.92,ENE,77,1.0,2.0,34,0.00,,,0.00,163,WeatherCatV1.11B39,2013-02-17 15:05:00,
2013-02-17 08:10:00,47.5,18.4,29.92,ENE,77,0.0,1.0,31,0.00,,,0.00,149,WeatherCatV1.11B39,2013-02-17 15:10:00,
2013-02-17 08:15:00,48.6,18.6,29.92,ENE,77,0.0,2.0,30,0.00,,,0.00,204,WeatherCatV1.11B39,2013-02-17 15:15:00,
2013-02-17 08:20:00,49.6,18.7,29.92,ENE,77,0.0,1.0,29,0.00,,,0.00,220,WeatherCatV1.11B39,2013-02-17 15:20:00,
2013-02-17 08:25:00,50.0,17.4,29.92,ENE,77,0.0,0.0,27,0.00,,,0.00,241,WeatherCatV1.11B39,2013-02-17 15:25:00,
2013-02-17 08:30:00,51.0,17.3,29.92,ENE,77,0.0,0.0,26,0.00,,,0.00,258,WeatherCatV1.11B39,2013-02-17 15:30:00,
2013-02-17 08:35:00,51.6,17.9,29.92,ENE,77,0.0,0.0,26,0.00,,,0.00,267,WeatherCatV1.11B39,2013-02-17 15:35:00,
2013-02-17 08:40:00,52.4,19.4,29.92,ENE,77,0.0,0.0,27,0.00,,,0.00,295,WeatherCatV1.11B39,2013-02-17 15:40:00,
2013-02-17 08:45:00,53.6,17.7,29.92,ENE,77,0.0,0.0,24,0.00,,,0.00,315,WeatherCatV1.11B39,2013-02-17 15:45:00,
2013-02-17 08:50:00,54.8,19.7,29.92,ENE,77,1.0,1.0,25,0.00,,,0.00,213,WeatherCatV1.11B39,2013-02-17 15:50:00,
2013-02-17 08:55:00,55.9,17.6,29.92,ENE,77,0.0,1.0,22,0.00,,,0.00,353,WeatherCatV1.11B39,2013-02-17 15:55:00,
2013-02-17 09:00:00,57.1,17.5,29.92,ENE,77,0.0,1.0,21,0.00,,,0.00,374,WeatherCatV1.11B39,2013-02-17 16:00:00,
2013-02-17 09:05:00,58.1,14.8,29.92,ENE,77,0.0,0.0,18,0.00,,,0.00,396,WeatherCatV1.11B39,2013-02-17 16:05:00,
2013-02-17 09:10:00,58.9,12.8,29.92,ENE,77,0.0,1.0,16,0.00,,,0.00,417,WeatherCatV1.11B39,2013-02-17 16:10:00,
2013-02-17 09:15:00,59.8,13.5,29.92,ENE,77,1.0,2.0,16,0.00,,,0.00,425,WeatherCatV1.11B39,2013-02-17 16:15:00,
2013-02-17 09:20:00,60.4,12.6,29.92,ENE,78,1.0,3.0,15,0.00,,,0.00,441,WeatherCatV1.11B39,2013-02-17 16:20:00,
2013-02-17 09:25:00,60.7,12.8,29.92,ENE,78,2.0,3.0,15,0.00,,,0.00,462,WeatherCatV1.11B39,2013-02-17 16:25:00,
2013-02-17 09:30:00,61.4,14.8,29.92,SSE,162,3.0,4.0,16,0.00,,,0.00,441,WeatherCatV1.11B39,2013-02-17 16:30:00,
2013-02-17 09:35:00,61.6,13.5,29.92,South,175,2.0,3.0,15,0.00,,,0.00,410,WeatherCatV1.11B39,2013-02-17 16:35:00,
2013-02-17 09:40:00,61.6,15.0,29.92,SSW,202,4.0,4.0,16,0.00,,,0.00,489,WeatherCatV1.11B39,2013-02-17 16:40:00,
2013-02-17 09:45:00,61.6,13.5,29.92,SSW,203,2.0,4.0,15,0.00,,,0.00,534,WeatherCatV1.11B39,2013-02-17 16:45:00,
2013-02-17 09:50:00,61.6,15.0,29.92,SSW,203,3.0,4.0,16,0.00,,,0.00,554,WeatherCatV1.11B39,2013-02-17 16:50:00,
2013-02-17 09:55:00,62.4,15.6,29.92,WSW,247,1.0,4.0,16,0.00,,,0.00,462,WeatherCatV1.11B39,2013-02-17 16:55:00,
2013-02-17 10:00:00,62.5,15.7,29.92,West,278,1.0,5.0,16,0.00,,,0.00,436,WeatherCatV1.11B39,2013-02-17 17:00:00,
2013-02-17 10:05:00,62.6,17.2,29.91,SW,236,3.0,5.0,17,0.00,,,0.00,534,WeatherCatV1.11B39,2013-02-17 17:05:00,
2013-02-17 10:10:00,63.1,18.9,29.92,WSW,256,3.0,5.0,18,0.00,,,0.00,598,WeatherCatV1.11B39,2013-02-17 17:10:00,
2013-02-17 10:15:00,63.3,20.3,29.92,WSW,238,3.0,3.0,19,0.00,,,0.00,563,WeatherCatV1.11B39,2013-02-17 17:15:00,
2013-02-17 10:20:00,63.5,20.5,29.92,West,269,4.0,5.0,19,0.00,,,0.00,628,WeatherCatV1.11B39,2013-02-17 17:20:00,
2013-02-17 10:25:00,64.2,19.8,29.92,SW,226,3.0,6.0,18,0.00,,,0.00,443,WeatherCatV1.11B39,2013-02-17 17:25:00,
2013-02-17 10:30:00,64.6,20.1,29.91,WSW,257,3.0,5.0,18,0.00,,,0.00,707,WeatherCatV1.11B39,2013-02-17 17:30:00,
2013-02-17 10:35:00,64.6,18.8,29.91,WNW,283,3.0,6.0,17,0.00,,,0.00,520,WeatherCatV1.11B39,2013-02-17 17:35:00,
2013-02-17 10:40:00,65.4,18.0,29.91,WNW,290,4.0,5.0,16,0.00,,,0.00,719,WeatherCatV1.11B39,2013-02-17 17:40:00,
2013-02-17 10:45:00,65.9,18.5,29.91,West,276,4.0,7.0,16,0.00,,,0.00,717,WeatherCatV1.11B39,2013-02-17 17:45:00,
2013-02-17 10:50:00,67.3,18.1,29.91,WSW,242,3.0,4.0,15,0.00,,,0.00,680,WeatherCatV1.11B39,2013-02-17 17:50:00,
2013-02-17 10:55:00,67.9,15.3,29.91,West,265,3.0,5.0,13,0.00,,,0.00,708,WeatherCatV1.11B39,2013-02-17 17:55:00,
2013-02-17 11:00:00,67.7,11.3,29.91,NW,306,4.0,5.0,11,0.00,,,0.00,708,WeatherCatV1.11B39,2013-02-17 18:00:00,
2013-02-17 11:05:00,67.4,11.1,29.91,West,265,0.0,5.0,11,0.00,,,0.00,548,WeatherCatV1.11B39,2013-02-17 18:05:00,
2013-02-17 11:10:00,67.4,9.0,29.91,West,271,4.0,6.0,10,0.00,,,0.00,696,WeatherCatV1.11B39,2013-02-17 18:10:00,
2013-02-17 11:15:00,68.7,12.1,29.90,SW,230,7.0,8.0,11,0.00,,,0.00,735,WeatherCatV1.11B39,2013-02-17 18:15:00,
2013-02-17 11:20:00,69.1,10.3,29.91,WNW,286,6.0,7.0,10,0.00,,,0.00,745,WeatherCatV1.11B39,2013-02-17 18:20:00,
2013-02-17 11:25:00,68.6,12.0,29.90,SW,224,7.0,8.0,11,0.00,,,0.00,633,WeatherCatV1.11B39,2013-02-17 18:25:00,
2013-02-17 11:30:00,69.2,14.4,29.90,WNW,290,5.0,9.0,12,0.00,,,0.00,766,WeatherCatV1.11B39,2013-02-17 18:30:00,
2013-02-17 11:35:00,69.6,14.8,29.90,SW,230,7.0,7.0,12,0.00,,,0.00,814,WeatherCatV1.11B39,2013-02-17 18:35:00,
2013-02-17 11:40:00,68.7,12.1,29.90,WSW,257,6.0,7.0,11,0.00,,,0.00,684,WeatherCatV1.11B39,2013-02-17 18:40:00,
2013-02-17 11:45:00,68.8,14.1,29.90,WSW,250,2.0,6.0,12,0.00,,,0.00,770,WeatherCatV1.11B39,2013-02-17 18:45:00,
2013-02-17 11:50:00,69.5,14.7,29.89,West,269,4.0,7.0,12,0.00,,,0.00,749,WeatherCatV1.11B39,2013-02-17 18:50:00,
2013-02-17 11:55:00,70.1,15.1,29.89,SW,221,4.0,10.0,12,0.00,,,0.00,770,WeatherCatV1.11B39,2013-02-17 18:55:00,
2013-02-17 12:00:00,70.5,13.5,29.89,WSW,240,6.0,7.0,11,0.00,,,0.00,765,WeatherCatV1.11B39,2013-02-17 19:00:00,
2013-02-17 12:05:00,70.3,13.3,29.89,West,278,6.0,10.0,11,0.00,,,0.00,772,WeatherCatV1.11B39,2013-02-17 19:05:00,
2013-02-17 12:10:00,70.1,15.1,29.89,WSW,251,9.0,13.0,12,0.00,,,0.00,777,WeatherCatV1.11B39,2013-02-17 19:10:00,
2013-02-17 12:15:00,70.5,15.5,29.88,WSW,238,4.0,8.0,12,0.00,,,0.00,777,WeatherCatV1.11B39,2013-02-17 19:15:00,
2013-02-17 12:21:00,70.7,15.6,29.88,West,265,8.0,11.0,12,0.00,,,0.00,779,WeatherCatV1.11B39,2013-02-17 19:21:00,
2013-02-17 12:26:00,70.8,13.7,29.88,WSW,239,6.0,9.0,11,0.00,,,0.00,782,WeatherCatV1.11B39,2013-02-17 19:26:00,
2013-02-17 12:31:00,70.9,15.8,29.87,WSW,245,4.0,9.0,12,0.00,,,0.00,782,WeatherCatV1.11B39,2013-02-17 19:31:00,
2013-02-17 12:36:00,71.3,14.1,29.87,West,264,4.0,12.0,11,0.00,,,0.00,784,WeatherCatV1.11B39,2013-02-17 19:36:00,
2013-02-17 12:41:00,71.3,14.1,29.87,West,266,7.0,15.0,11,0.00,,,0.00,784,WeatherCatV1.11B39,2013-02-17 19:41:00,
2013-02-17 12:46:00,71.3,14.1,29.87,WNW,288,6.0,12.0,11,0.00,,,0.00,784,WeatherCatV1.11B39,2013-02-17 19:46:00,
2013-02-17 12:51:00,71.0,13.9,29.86,West,281,9.0,12.0,11,0.00,,,0.00,782,WeatherCatV1.11B39,2013-02-17 19:51:00,
2013-02-17 12:56:00,71.4,16.2,29.86,West,272,10.0,14.0,12,0.00,,,0.00,786,WeatherCatV1.11B39,2013-02-17 19:56:00,
2013-02-17 13:01:00,71.4,14.2,29.86,NW,309,12.0,12.0,11,0.00,,,0.00,782,WeatherCatV1.11B39,2013-02-17 20:01:00,
2013-02-17 13:06:00,71.2,14.0,29.85,WNW,297,8.0,8.0,11,0.00,,,0.00,777,WeatherCatV1.11B39,2013-02-17 20:06:00,
2013-02-17 13:11:00,71.8,12.3,29.85,West,259,9.0,13.0,10,0.00,,,0.00,773,WeatherCatV1.11B39,2013-02-17 20:11:00,
2013-02-17 13:16:00,71.8,14.5,29.85,SW,230,9.0,15.0,11,0.00,,,0.00,772,WeatherCatV1.11B39,2013-02-17 20:16:00,
2013-02-17 13:21:00,73.1,15.5,29.84,West,265,9.0,13.0,11,0.00,,,0.00,768,WeatherCatV1.11B39,2013-02-17 20:21:00,
2013-02-17 13:26:00,72.0,12.5,29.84,WSW,251,0.0,10.0,10,0.00,,,0.00,758,WeatherCatV1.11B39,2013-02-17 20:26:00,
2013-02-17 13:31:00,72.5,15.0,29.84,WSW,253,8.0,8.0,11,0.00,,,0.00,761,WeatherCatV1.11B39,2013-02-17 20:31:00,
2013-02-17 13:36:00,72.6,12.9,29.83,WNW,294,6.0,7.0,10,0.00,,,0.00,754,WeatherCatV1.11B39,2013-02-17 20:36:00,
2013-02-17 13:41:00,72.6,12.9,29.83,West,266,7.0,12.0,10,0.00,,,0.00,751,WeatherCatV1.11B39,2013-02-17 20:41:00,
2013-02-17 13:46:00,72.1,12.5,29.83,West,277,3.0,10.0,10,0.00,,,0.00,744,WeatherCatV1.11B39,2013-02-17 20:46:00,
2013-02-17 13:51:00,72.2,12.6,29.83,WNW,292,9.0,10.0,10,0.00,,,0.00,737,WeatherCatV1.11B39,2013-02-17 20:51:00,
2013-02-17 13:56:00,72.3,14.9,29.82,West,281,8.0,10.0,11,0.00,,,0.00,731,WeatherCatV1.11B39,2013-02-17 20:56:00,
2013-02-17 14:01:00,72.8,15.2,29.82,West,267,12.0,12.0,11,0.00,,,0.00,724,WeatherCatV1.11B39,2013-02-17 21:01:00,
2013-02-17 14:06:00,72.7,10.6,29.82,WSW,257,8.0,9.0,9,0.00,,,0.00,717,WeatherCatV1.11B39,2013-02-17 21:06:00,
2013-02-17 14:11:00,72.8,10.7,29.82,WSW,251,11.0,13.0,9,0.00,,,0.00,710,WeatherCatV1.11B39,2013-02-17 21:11:00,
2013-02-17 14:16:00,72.9,10.8,29.82,SW,228,7.0,14.0,9,0.00,,,0.00,703,WeatherCatV1.11B39,2013-02-17 21:16:00,
2013-02-17 14:21:00,73.1,8.3,29.82,West,275,5.0,14.0,8,0.00,,,0.00,694,WeatherCatV1.11B39,2013-02-17 21:21:00,
2013-02-17 14:26:00,73.8,8.8,29.81,SW,224,14.0,14.0,8,0.00,,,0.00,684,WeatherCatV1.11B39,2013-02-17 21:26:00,
2013-02-17 14:31:00,73.4,11.2,29.81,NW,305,10.0,11.0,9,0.00,,,0.00,675,WeatherCatV1.11B39,2013-02-17 21:31:00,
2013-02-17 14:36:00,73.6,13.7,29.81,WNW,294,7.0,11.0,10,0.00,,,0.00,657,WeatherCatV1.11B39,2013-02-17 21:36:00,
2013-02-17 14:41:00,73.7,13.8,29.81,West,260,9.0,18.0,10,0.00,,,0.00,649,WeatherCatV1.11B39,2013-02-17 21:41:00,
2013-02-17 14:46:00,73.7,11.4,29.81,WNW,299,8.0,13.0,9,0.00,,,0.00,643,WeatherCatV1.11B39,2013-02-17 21:46:00,
2013-02-17 14:51:00,73.0,13.2,29.80,WSW,246,10.0,14.0,10,0.00,,,0.00,605,WeatherCatV1.11B39,2013-02-17 21:51:00,
2013-02-17 14:56:00,72.8,13.1,29.80,WNW,292,4.0,6.0,10,0.00,,,0.00,610,WeatherCatV1.11B39,2013-02-17 21:56:00,
2013-02-17 15:01:00,72.8,10.7,29.80,WSW,246,6.0,8.0,9,0.00,,,0.00,608,WeatherCatV1.11B39,2013-02-17 22:01:00,
2013-02-17 15:06:00,73.1,10.9,29.80,WNW,288,7.0,8.0,9,0.00,,,0.00,596,WeatherCatV1.11B39,2013-02-17 22:06:00,
2013-02-17 15:11:00,72.6,10.6,29.80,West,272,11.0,13.0,9,0.00,,,0.00,554,WeatherCatV1.11B39,2013-02-17 22:11:00,
2013-02-17 15:16:00,72.7,10.6,29.80,WSW,238,6.0,13.0,9,0.00,,,0.00,573,WeatherCatV1.11B39,2013-02-17 22:16:00,
2013-02-17 15:21:00,73.2,8.4,29.80,West,263,7.0,11.0,8,0.00,,,0.00,545,WeatherCatV1.11B39,2013-02-17 22:21:00,
2013-02-17 15:26:00,72.9,8.2,29.80,WSW,239,9.0,16.0,8,0.00,,,0.00,545,WeatherCatV1.11B39,2013-02-17 22:26:00,
2013-02-17 15:31:00,72.9,5.2,29.80,WSW,252,6.0,15.0,7,0.00,,,0.00,531,WeatherCatV1.11B39,2013-02-17 22:31:00,
2013-02-17 15:36:00,72.9,5.2,29.80,WNW,292,9.0,9.0,7,0.00,,,0.00,489,WeatherCatV1.11B39,2013-02-17 22:36:00,
2013-02-17 15:41:00,73.3,5.5,29.80,WSW,255,8.0,15.0,7,0.00,,,0.00,499,WeatherCatV1.11B39,2013-02-17 22:41:00,
2013-02-17 15:46:00,72.8,5.2,29.80,WSW,255,5.0,13.0,7,0.00,,,0.00,483,WeatherCatV1.11B39,2013-02-17 22:46:00,
2013-02-17 15:51:00,72.3,4.8,29.80,NW,307,9.0,16.0,7,0.00,,,0.00,466,WeatherCatV1.11B39,2013-02-17 22:51:00,
2013-02-17 15:56:00,72.0,7.5,29.80,West,276,5.0,8.0,8,0.00,,,0.00,452,WeatherCatV1.11B39,2013-02-17 22:56:00,
2013-02-17 16:01:00,72.1,7.6,29.81,WSW,239,15.0,18.0,8,0.00,,,0.00,436,WeatherCatV1.11B39,2013-02-17 23:01:00,
2013-02-17 16:06:00,71.6,7.2,29.80,WNW,285,7.0,19.0,8,0.00,,,0.00,417,WeatherCatV1.11B39,2013-02-17 23:06:00,
2013-02-17 16:11:00,71.2,6.9,29.80,NW,312,7.0,10.0,8,0.00,,,0.00,404,WeatherCatV1.11B39,2013-02-17 23:11:00,
2013-02-17 16:16:00,71.6,9.8,29.81,WSW,255,10.0,17.0,9,0.00,,,0.00,385,WeatherCatV1.11B39,2013-02-17 23:16:00,
2013-02-17 16:21:00,71.5,7.1,29.80,West,279,5.0,13.0,8,0.00,,,0.00,322,WeatherCatV1.11B39,2013-02-17 23:21:00,
2013-02-17 16:26:00,71.0,9.4,29.80,WNW,303,8.0,16.0,9,0.00,,,0.00,332,WeatherCatV1.11B39,2013-02-17 23:26:00,
2013-02-17 16:31:00,71.0,9.4,29.80,West,273,6.0,8.0,9,0.00,,,0.00,272,WeatherCatV1.11B39,2013-02-17 23:31:00,
2013-02-17 16:36:00,71.1,9.4,29.80,WNW,297,7.0,12.0,9,0.00,,,0.00,292,WeatherCatV1.11B39,2013-02-17 23:36:00,
2013-02-17 16:41:00,70.6,9.0,29.80,WNW,286,8.0,16.0,9,0.00,,,0.00,272,WeatherCatV1.11B39,2013-02-17 23:41:00,
2013-02-17 16:46:00,70.6,9.0,29.80,West,276,9.0,15.0,9,0.00,,,0.00,278,WeatherCatV1.11B39,2013-02-17 23:46:00,
2013-02-17 16:51:00,70.4,8.9,29.80,WNW,294,9.0,15.0,9,0.00,,,0.00,258,WeatherCatV1.11B39,2013-02-17 23:51:00,
2013-02-17 16:56:00,70.5,9.0,29.81,WNW,286,11.0,14.0,9,0.00,,,0.00,227,WeatherCatV1.11B39,2013-02-17 23:56:00,
2013-02-17 17:01:00,70.1,8.7,29.81,West,267,7.0,14.0,9,0.00,,,0.00,179,WeatherCatV1.11B39,2013-02-18 00:01:00,
2013-02-17 17:06:00,69.9,10.9,29.81,West,276,10.0,14.0,10,0.00,,,0.00,193,WeatherCatV1.11B39,2013-02-18 00:06:00,
2013-02-17 17:11:00,69.7,10.7,29.81,WNW,283,11.0,11.0,10,0.00,,,0.00,158,WeatherCatV1.11B39,2013-02-18 00:11:00,
2013-02-17 17:16:00,69.7,10.7,29.80,WSW,237,11.0,15.0,10,0.00,,,0.00,148,WeatherCatV1.11B39,2013-02-18 00:16:00,
2013-02-17 17:21:00,69.4,10.5,29.81,WNW,283,11.0,11.0,10,0.00,,,0.00,123,WeatherCatV1.11B39,2013-02-18 00:21:00,
2013-02-17 17:26:00,69.2,10.3,29.81,West,274,7.0,15.0,10,0.00,,,0.00,84,WeatherCatV1.11B39,2013-02-18 00:26:00,
2013-02-17 17:31:00,69.0,10.2,29.81,West,270,12.0,13.0,10,0.00,,,0.00,90,WeatherCatV1.11B39,2013-02-18 00:31:00,
2013-02-17 17:36:00,68.7,10.0,29.81,West,278,12.0,17.0,10,0.00,,,0.00,65,WeatherCatV1.11B39,2013-02-18 00:36:00,
2013-02-17 17:41:00,68.4,9.7,29.81,WNW,286,14.0,15.0,10,0.00,,,0.00,44,WeatherCatV1.11B39,2013-02-18 00:41:00,
2013-02-17 17:46:00,68.2,9.6,29.81,West,274,14.0,15.0,10,0.00,,,0.00,28,WeatherCatV1.11B39,2013-02-18 00:46:00,
2013-02-17 17:51:00,67.7,9.2,29.81,West,272,14.0,14.0,10,0.00,,,0.00,19,WeatherCatV1.11B39,2013-02-18 00:51:00,
2013-02-17 17:56:00,67.4,11.1,29.82,West,269,7.0,16.0,11,0.00,,,0.00,18,WeatherCatV1.11B39,2013-02-18 00:56:00,
2013-02-17 18:01:00,67.0,10.8,29.82,West,271,5.0,12.0,11,0.00,,,0.00,12,WeatherCatV1.11B39,2013-02-18 01:01:00,
2013-02-17 18:06:00,66.6,10.5,29.82,West,265,9.0,13.0,11,0.00,,,0.00,9,WeatherCatV1.11B39,2013-02-18 01:06:00,
2013-02-17 18:11:00,66.1,12.0,29.82,West,276,8.0,14.0,12,0.00,,,0.00,5,WeatherCatV1.11B39,2013-02-18 01:11:00,
2013-02-17 18:16:00,65.8,11.8,29.82,West,281,6.0,8.0,12,0.00,,,0.00,0,WeatherCatV1.11B39,2013-02-18 01:16:00,
2013-02-17 18:21:00,65.4,11.5,29.83,West,267,5.0,10.0,12,0.00,,,0.00,0,WeatherCatV1.11B39,2013-02-18 01:21:00,
2013-02-17 18:26:00,64.9,12.9,29.83,West,277,4.0,8.0,13,0.00,,,0.00,0,WeatherCatV1.11B39,2013-02-18 01:26:00,
2013-02-17 18:31:00,64.4,12.5,29.83,WNW,283,7.0,11.0,13,0.00,,,0.00,0,WeatherCatV1.11B39,2013-02-18 01:31:00,
2013-02-17 18:36:00,64.0,12.2,29.83,WNW,282,8.0,11.0,13,0.00,,,0.00,0,WeatherCatV1.11B39,2013-02-18 01:36:00,
2013-02-17 18:41:00,63.8,12.0,29.83,West,276,6.0,11.0,13,0.00,,,0.00,0,WeatherCatV1.11B39,2013-02-18 01:41:00,
2013-02-17 18:46:00,63.5,13.5,29.83,West,267,5.0,10.0,14,0.00,,,0.00,0,WeatherCatV1.11B39,2013-02-18 01:46:00,
2013-02-17 18:51:00,63.2,13.2,29.84,WNW,301,3.0,7.0,14,0.00,,,0.00,0,WeatherCatV1.11B39,2013-02-18 01:51:00,
2013-02-17 18:56:00,63.0,13.1,29.84,West,259,4.0,8.0,14,0.00,,,0.00,0,WeatherCatV1.11B39,2013-02-18 01:56:00,
2013-02-17 19:01:00,62.9,14.6,29.84,WNW,291,7.0,8.0,15,0.00,,,0.00,0,WeatherCatV1.11B39,2013-02-18 02:01:00,
2013-02-17 19:06:00,62.5,14.2,29.84,WNW,299,3.0,8.0,15,0.00,,,0.00,0,WeatherCatV1.11B39,2013-02-18 02:06:00,
2013-02-17 19:11:00,62.1,13.9,29.84,WNW,294,2.0,7.0,15,0.00,,,0.00,0,WeatherCatV1.11B39,2013-02-18 02:11:00,
2013-02-17 19:16:00,61.5,14.9,29.84,WNW,290,5.0,5.0,16,0.00,,,0.00,0,WeatherCatV1.11B39,2013-02-18 02:16:00,
2013-02-17 19:21:00,61.1,14.6,29.85,WNW,286,5.0,7.0,16,0.00,,,0.00,0,WeatherCatV1.11B39,2013-02-18 02:21:00,
2013-02-17 19:26:00,60.8,14.3,29.85,West,278,3.0,6.0,16,0.00,,,0.00,0,WeatherCatV1.11B39,2013-02-18 02:26:00,
2013-02-17 19:31:00,60.5,15.5,29.85,West,271,5.0,8.0,17,0.00,,,0.00,0,WeatherCatV1.11B39,2013-02-18 02:31:00,
2013-02-17 19:36:00,60.3,15.3,29.85,West,274,3.0,7.0,17,0.00,,,0.00,0,WeatherCatV1.11B39,2013-02-18 02:36:00,
2013-02-17 19:41:00,60.2,15.2,29.85,West,276,7.0,9.0,17,0.00,,,0.00,0,WeatherCatV1.11B39,2013-02-18 02:41:00,
2013-02-17 19:46:00,60.2,15.2,29.85,WNW,284,6.0,9.0,17,0.00,,,0.00,0,WeatherCatV1.11B39,2013-02-18 02:46:00,
2013-02-17 19:51:00,60.2,15.2,29.86,WNW,296,5.0,8.0,17,0.00,,,0.00,0,WeatherCatV1.11B39,2013-02-18 02:51:00,
2013-02-17 19:56:00,60.2,15.2,29.86,WNW,284,7.0,8.0,17,0.00,,,0.00,0,WeatherCatV1.11B39,2013-02-18 02:56:00,
2013-02-17 20:01:00,60.2,15.2,29.86,West,274,7.0,10.0,17,0.00,,,0.00,0,WeatherCatV1.11B39,2013-02-18 03:01:00,
2013-02-17 20:06:00,60.5,15.5,29.86,West,269,5.0,9.0,17,0.00,,,0.00,0,WeatherCatV1.11B39,2013-02-18 03:06:00,
2013-02-17 20:11:00,60.4,16.7,29.86,WNW,288,5.0,8.0,18,0.00,,,0.00,0,WeatherCatV1.11B39,2013-02-18 03:11:00,
2013-02-17 20:16:00,60.2,16.5,29.87,WNW,282,6.0,10.0,18,0.00,,,0.00,0,WeatherCatV1.11B39,2013-02-18 03:16:00,
2013-02-17 20:21:00,60.0,16.4,29.87,West,266,7.0,10.0,18,0.00,,,0.00,0,WeatherCatV1.11B39,2013-02-18 03:21:00,
2013-02-17 20:26:00,59.7,17.4,29.87,WNW,287,6.0,8.0,19,0.00,,,0.00,0,WeatherCatV1.11B39,2013-02-18 03:26:00,
2013-02-17 20:31:00,59.5,17.2,29.87,West,277,7.0,8.0,19,0.00,,,0.00,0,WeatherCatV1.11B39,2013-02-18 03:31:00,
2013-02-17 20:36:00,59.3,17.1,29.88,West,281,4.0,10.0,19,0.00,,,0.00,0,WeatherCatV1.11B39,2013-02-18 03:36:00,
2013-02-17 20:41:00,59.1,18.1,29.88,WNW,292,4.0,6.0,20,0.00,,,0.00,0,WeatherCatV1.11B39,2013-02-18 03:41:00,
2013-02-17 20:46:00,58.7,17.7,29.88,WNW,289,6.0,6.0,20,0.00,,,0.00,0,WeatherCatV1.11B39,2013-02-18 03:46:00,
2013-02-17 20:51:00,58.3,17.4,29.88,WNW,286,4.0,5.0,20,0.00,,,0.00,0,WeatherCatV1.11B39,2013-02-18 03:51:00,
2013-02-17 20:56:00,57.9,18.2,29.88,West,274,3.0,7.0,21,0.00,,,0.00,0,WeatherCatV1.11B39,2013-02-18 03:56:00,
2013-02-17 21:01:00,57.6,18.0,29.89,WNW,282,5.0,6.0,21,0.00,,,0.00,0,WeatherCatV1.11B39,2013-02-18 04:01:00,
2013-02-17 21:06:00,57.4,17.8,29.89,West,271,4.0,5.0,21,0.00,,,0.00,0,WeatherCatV1.11B39,2013-02-18 04:06:00,
2013-02-17 21:11:00,57.2,18.7,29.89,WNW,288,5.0,5.0,22,0.00,,,0.00,0,WeatherCatV1.11B39,2013-02-18 04:11:00,
2013-02-17 21:16:00,57.1,18.6,29.89,West,278,5.0,5.0,22,0.00,,,0.00,0,WeatherCatV1.11B39,2013-02-18 04:16:00,
2013-02-17 21:21:00,56.8,18.4,29.89,WNW,287,3.0,3.0,22,0.00,,,0.00,0,WeatherCatV1.11B39,2013-02-18 04:21:00,
2013-02-17 21:26:00,56.7,18.3,29.90,West,273,6.0,7.0,22,0.00,,,0.00,0,WeatherCatV1.11B39,2013-02-18 04:26:00,
2013-02-17 21:31:00,56.7,19.3,29.90,West,274,4.0,5.0,23,0.00,,,0.00,0,WeatherCatV1.11B39,2013-02-18 04:31:00,
2013-02-17 21:36:00,56.6,19.2,29.90,West,272,3.0,4.0,23,0.00,,,0.00,0,WeatherCatV1.11B39,2013-02-18 04:36:00,
2013-02-17 21:41:00,56.4,20.1,29.90,West,264,3.0,5.0,24,0.00,,,0.00,0,WeatherCatV1.11B39,2013-02-18 04:41:00,
2013-02-17 21:46:00,56.2,19.9,29.90,West,269,4.0,4.0,24,0.00,,,0.00,0,WeatherCatV1.11B39,2013-02-18 04:46:00,
2013-02-17 21:51:00,56.2,19.9,29.90,West,263,3.0,5.0,24,0.00,,,0.00,0,WeatherCatV1.11B39,2013-02-18 04:51:00,
2013-02-17 21:56:00,56.2,20.9,29.91,West,267,3.0,6.0,25,0.00,,,0.00,0,WeatherCatV1.11B39,2013-02-18 04:56:00,
2013-02-17 22:00:00,56.1,20.8,29.91,West,270,3.0,4.0,25,0.00,,,0.00,0,WeatherCatV1.11B39,2013-02-18 05:00:00,
2013-02-17 22:05:00,55.7,21.4,29.91,West,274,3.0,4.0,26,0.00,,,0.00,0,WeatherCatV1.11B39,2013-02-18 05:05:00,
2013-02-17 22:10:00,54.6,20.4,29.91,West,274,1.0,2.0,26,0.00,,,0.00,0,WeatherCatV1.11B39,2013-02-18 05:10:00,
2013-02-17 22:15:00,53.2,21.0,29.91,West,274,0.0,0.0,28,0.00,,,0.00,0,WeatherCatV1.11B39,2013-02-18 05:15:00,
2013-02-17 22:20:00,52.3,21.8,29.91,West,274,0.0,0.0,30,0.00,,,0.00,0,WeatherCatV1.11B39,2013-02-18 05:20:00,
2013-02-17 22:25:00,51.1,21.5,29.91,West,274,2.0,2.0,31,0.00,,,0.00,0,WeatherCatV1.11B39,2013-02-18 05:25:00,
2013-02-17 22:30:00,50.3,21.6,29.92,West,274,2.0,2.0,32,0.00,,,0.00,0,WeatherCatV1.11B39,2013-02-18 05:30:00,
2013-02-17 22:35:00,49.6,21.7,29.91,West,274,1.0,2.0,33,0.00,,,0.00,0,WeatherCatV1.11B39,2013-02-18 05:35:00,
2013-02-17 22:40:00,49.1,21.3,29.92,NW,322,2.0,3.0,33,0.00,,,0.00,0,WeatherCatV1.11B39,2013-02-18 05:40:00,
2013-02-17 22:45:00,49.3,21.4,29.92,NW,323,0.0,1.0,33,0.00,,,0.00,0,WeatherCatV1.11B39,2013-02-18 05:45:00,
2013-02-17 22:50:00,48.9,21.1,29.91,NW,323,0.0,1.0,33,0.00,,,0.00,0,WeatherCatV1.11B39,2013-02-18 05:50:00,
2013-02-17 22:55:00,47.9,21.6,29.92,NW,323,1.0,1.0,35,0.00,,,0.00,0,WeatherCatV1.11B39,2013-02-18 05:55:00,
2013-02-17 23:00:00,47.2,21.6,29.92,NW,323,0.0,0.0,36,0.00,,,0.00,0,WeatherCatV1.11B39,2013-02-18 06:00:00,
2013-02-17 23:05:00,47.1,22.2,29.92,NW,323,0.0,0.0,37,0.00,,,0.00,0,WeatherCatV1.11B39,2013-02-18 06:05:00,
2013-02-17 23:10:00,46.7,21.8,29.91,NW,323,0.0,1.0,37,0.00,,,0.00,0,WeatherCatV1.11B39,2013-02-18 06:10:00,
2013-02-17 23:15:00,46.0,22.4,29.92,NW,323,0.0,0.0,39,0.00,,,0.00,0,WeatherCatV1.11B39,2013-02-18 06:15:00,
2013-02-17 23:20:00,45.6,22.7,29.92,NW,323,1.0,1.0,40,0.00,,,0.00,0,WeatherCatV1.11B39,2013-02-18 06:20:00,
2013-02-17 23:25:00,45.1,22.2,29.92,NW,323,1.0,1.0,40,0.00,,,0.00,0,WeatherCatV1.11B39,2013-02-18 06:25:00,
2013-02-17 23:30:00,44.7,22.5,29.92,NW,323,4.0,4.0,41,0.00,,,0.00,0,WeatherCatV1.11B39,2013-02-18 06:30:00,
2013-02-17 23:35:00,45.3,21.8,29.92,NW,323,0.0,1.0,39,0.00,,,0.00,0,WeatherCatV1.11B39,2013-02-18 06:35:00,
2013-02-17 23:40:00,46.6,21.7,29.92,NW,323,0.0,0.0,37,0.00,,,0.00,0,WeatherCatV1.11B39,2013-02-18 06:40:00,
2013-02-17 23:45:00,46.8,21.9,29.93,NW,322,2.0,2.0,37,0.00,,,0.00,0,WeatherCatV1.11B39,2013-02-18 06:45:00,
2013-02-17 23:50:00,47.3,21.0,29.93,NW,323,2.0,3.0,35,0.00,,,0.00,0,WeatherCatV1.11B39,2013-02-18 06:50:00,
2013-02-17 23:55:00,48.3,21.3,29.93,NW,323,1.0,2.0,34,0.00,,,0.00,0,WeatherCatV1.11B39,2013-02-18 06:55:00,